Time;durP1;ratioP1;P1;durP2;ratioP2;P2;SDS_P1;SDS_P2;PMS_P1;PMS_P2;Temp;Humidity;BMP_temperature;BMP_pressure;BME280_temperature;BME280_humidity;BME280_pressure;Samples;Min_cycle;Max_cycle;Signal;HPM_P1;HPM_P2
2023/12/15 00:00:13;;;;;;;1008.50;905.13;;;5.80;99.90;;;;;;5055147;28;20064;-82
2023/12/15 00:02:38;;;;;;;985.25;887.58;;;5.80;99.90;;;;;;5067685;28;20248;-82
2023/12/15 00:05:04;;;;;;;991.42;891.95;;;5.80;99.90;;;;;;5054303;28;20104;-82
2023/12/15 00:07:30;;;;;;;1034.65;924.13;;;5.80;99.90;;;;;;5068428;28;20404;-83
2023/12/15 00:09:56;;;;;;;991.22;893.45;;;5.90;99.90;;;;;;5063551;28;20056;-82
2023/12/15 00:12:21;;;;;;;963.38;872.08;;;6.80;99.90;;;;;;5067405;28;20041;-82
2023/12/15 00:14:47;;;;;;;1063.18;943.72;;;6.80;99.90;;;;;;5058905;28;20036;-82
2023/12/15 00:17:14;;;;;;;973.20;879.55;;;5.80;99.90;;;;;;5046323;28;20037;-82
2023/12/15 00:19:39;;;;;;;1032.32;922.05;;;6.30;99.90;;;;;;5051634;28;20052;-82
2023/12/15 00:22:05;;;;;;;966.17;875.45;;;5.90;99.90;;;;;;5054144;28;20045;-82
2023/12/15 00:24:30;;;;;;;1016.40;913.30;;;5.90;99.90;;;;;;5050983;28;20036;-82
2023/12/15 00:26:58;;;;;;;1057.00;936.15;;;6.70;99.90;;;;;;5053245;28;20485;-82
2023/12/15 00:29:24;;;;;;;1028.63;919.90;;;5.90;99.90;;;;;;5051946;28;20048;-82
2023/12/15 00:31:50;;;;;;;989.92;891.83;;;5.40;99.90;;;;;;5071558;28;20041;-82
2023/12/15 00:34:16;;;;;;;1016.95;909.53;;;6.00;99.90;;;;;;5051030;28;20048;-82
2023/12/15 00:36:42;;;;;;;977.70;884.13;;;7.20;99.90;;;;;;5050956;28;20508;-83
2023/12/15 00:39:07;;;;;;;1051.03;930.50;;;6.00;99.90;;;;;;5071471;28;20104;-82
2023/12/15 00:41:33;;;;;;;964.35;872.78;;;6.00;99.90;;;;;;5051706;28;20040;-82
2023/12/15 00:44:04;;;;;;;972.22;878.53;;;6.90;99.90;;;;;;5088035;28;20508;-82
2023/12/15 00:46:30;;;;;;;997.70;895.28;;;6.80;99.90;;;;;;5066012;28;20032;-82
2023/12/15 00:48:57;;;;;;;992.63;891.67;;;6.00;99.90;;;;;;5076070;28;20029;-82
2023/12/15 00:51:22;;;;;;;1014.15;908.05;;;6.10;99.90;;;;;;5055444;28;20408;-82
2023/12/15 00:53:48;;;;;;;993.63;893.33;;;6.10;99.90;;;;;;5050033;28;20041;-82
2023/12/15 00:56:13;;;;;;;1043.05;927.35;;;6.10;99.90;;;;;;5051059;28;20318;-82
2023/12/15 00:58:39;;;;;;;1036.57;928.33;;;7.40;99.90;;;;;;5084976;28;20123;-83
2023/12/15 01:01:07;;;;;;;1023.67;916.10;;;6.10;99.90;;;;;;5049136;28;20090;-82
2023/12/15 01:03:33;;;;;;;1087.45;948.60;;;6.10;99.90;;;;;;5071097;28;20040;-82
2023/12/15 01:05:59;;;;;;;1057.13;937.45;;;6.90;99.90;;;;;;5071430;28;20037;-82
2023/12/15 01:08:24;;;;;;;1012.67;906.95;;;6.60;99.90;;;;;;5054405;28;20041;-82
2023/12/15 01:10:50;;;;;;;975.88;879.20;;;6.20;99.90;;;;;;5069672;28;20041;-82
2023/12/15 01:13:16;;;;;;;1050.00;934.67;;;6.20;99.90;;;;;;5038970;28;20033;-82
2023/12/15 01:15:41;;;;;;;1057.80;942.95;;;6.20;99.90;;;;;;5077717;28;20045;-81
2023/12/15 01:18:07;;;;;;;1038.72;925.88;;;6.30;99.90;;;;;;5050794;28;20029;-82
2023/12/15 01:20:33;;;;;;;1013.13;909.67;;;6.20;99.90;;;;;;5082904;28;20108;-82
2023/12/15 01:22:59;;;;;;;1041.65;927.38;;;6.20;99.90;;;;;;5044906;28;20044;-82
2023/12/15 01:25:25;;;;;;;1083.68;947.72;;;6.30;99.90;;;;;;5069550;28;20058;-82
2023/12/15 01:27:50;;;;;;;1050.32;938.22;;;6.30;99.90;;;;;;5048156;28;20079;-82
2023/12/15 01:30:16;;;;;;;1047.55;934.22;;;6.50;99.90;;;;;;5053748;28;20044;-82
2023/12/15 01:32:42;;;;;;;1042.63;927.45;;;6.20;99.90;;;;;;5050915;28;20067;-82
2023/12/15 01:35:09;;;;;;;1062.53;934.40;;;6.30;99.90;;;;;;5051644;28;20048;-82
2023/12/15 01:37:35;;;;;;;1078.75;943.92;;;6.30;99.90;;;;;;5052384;28;20036;-82
2023/12/15 01:40:00;;;;;;;1004.50;901.67;;;6.60;99.90;;;;;;5066669;28;20047;-82
2023/12/15 01:42:26;;;;;;;1089.13;948.70;;;6.30;99.90;;;;;;5082737;28;20037;-81
2023/12/15 01:44:55;;;;;;;1026.85;918.85;;;7.50;99.90;;;;;;5073745;28;20041;-82
2023/12/15 01:47:24;;;;;;;1038.30;924.50;;;6.90;99.90;;;;;;5064296;28;20043;-82
2023/12/15 01:49:51;;;;;;;1072.45;941.08;;;6.30;99.90;;;;;;5055412;28;20134;-82
2023/12/15 01:52:16;;;;;;;1185.15;966.15;;;6.40;99.90;;;;;;5072775;28;20037;-82
2023/12/15 01:54:42;;;;;;;1086.65;945.17;;;6.60;99.90;;;;;;5066252;28;20047;-83
2023/12/15 01:57:08;;;;;;;1015.28;908.22;;;6.50;99.90;;;;;;5074288;28;20124;-82
2023/12/15 01:59:43;;;;;;;1078.93;947.17;;;6.40;99.90;;;;;;5056554;28;20040;-82
2023/12/15 02:02:09;;;;;;;1054.93;935.70;;;6.40;99.90;;;;;;5069011;28;20071;-82
2023/12/15 02:04:35;;;;;;;1046.50;933.85;;;6.40;99.90;;;;;;5052563;28;20041;-82
2023/12/15 02:07:02;;;;;;;1067.13;946.47;;;7.60;99.90;;;;;;5052040;28;20037;-82
2023/12/15 02:09:27;;;;;;;1180.90;965.10;;;6.50;99.90;;;;;;5075399;28;20060;-82
2023/12/15 02:11:53;;;;;;;1095.63;952.20;;;6.50;99.90;;;;;;5057578;28;20025;-82
2023/12/15 02:14:19;;;;;;;1062.50;941.40;;;6.50;99.90;;;;;;5057060;28;20119;-82
2023/12/15 02:16:44;;;;;;;1063.68;937.97;;;6.70;99.90;;;;;;5053432;28;20072;-82
2023/12/15 02:19:10;;;;;;;1072.07;950.63;;;6.50;99.90;;;;;;5054790;28;20123;-83
2023/12/15 02:21:36;;;;;;;1070.65;941.63;;;6.50;99.90;;;;;;5066880;28;20044;-83
2023/12/15 02:24:04;;;;;;;1080.00;952.97;;;6.60;99.90;;;;;;5073335;28;20033;-82
2023/12/15 02:26:30;;;;;;;1076.90;953.35;;;6.60;99.90;;;;;;5065462;28;20041;-82
2023/12/15 02:28:56;;;;;;;1117.65;964.35;;;6.60;99.90;;;;;;5053013;28;20037;-82
2023/12/15 02:31:22;;;;;;;1195.43;979.78;;;6.60;99.90;;;;;;5055772;28;20032;-82
2023/12/15 02:33:48;;;;;;;1101.38;958.75;;;6.60;99.90;;;;;;5052520;28;20044;-82
2023/12/15 02:36:21;;;;;;;1252.25;986.33;;;6.60;99.90;;;;;;5051917;28;20416;-83
2023/12/15 02:38:47;;;;;;;1062.75;946.28;;;7.20;99.90;;;;;;5054631;28;20459;-83
2023/12/15 02:41:13;;;;;;;1192.22;975.30;;;7.20;99.90;;;;;;5049951;28;20037;-82
2023/12/15 02:43:42;;;;;;;1037.97;925.83;;;6.70;99.90;;;;;;5050029;28;20080;-82
2023/12/15 02:46:08;;;;;;;1067.28;942.72;;;6.70;99.90;;;;;;5055599;28;20508;-82
2023/12/15 02:48:33;;;;;;;1048.03;935.50;;;7.70;99.90;;;;;;5052714;28;20115;-83
2023/12/15 02:51:01;;;;;;;1175.10;964.80;;;6.70;99.90;;;;;;5072237;28;20039;-82
2023/12/15 02:53:30;;;;;;;1125.40;962.05;;;6.20;99.90;;;;;;5084901;28;20032;-82
2023/12/15 02:55:55;;;;;;;1054.95;939.38;;;7.00;99.90;;;;;;5052079;28;20057;-82
2023/12/15 02:58:21;;;;;;;1082.30;950.47;;;6.70;99.90;;;;;;5068271;28;20115;-82
2023/12/15 03:00:46;;;;;;;1112.30;966.33;;;6.70;99.90;;;;;;5082381;28;20055;-83
2023/12/15 03:03:13;;;;;;;1274.00;976.72;;;6.70;99.90;;;;;;5057072;28;20500;-83
2023/12/15 03:05:39;;;;;;;1073.35;945.83;;;7.70;99.90;;;;;;5052335;28;20037;-83
2023/12/15 03:08:04;;;;;;;1088.15;958.67;;;7.00;99.90;;;;;;5051531;28;20037;-82
2023/12/15 03:10:33;;;;;;;1101.95;960.08;;;7.90;99.90;;;;;;5068414;28;20037;-82
2023/12/15 03:12:58;;;;;;;1137.88;957.25;;;6.80;99.90;;;;;;5072524;28;20047;-82
2023/12/15 03:15:26;;;;;;;1103.55;961.20;;;7.70;99.90;;;;;;5052718;28;20050;-83
2023/12/15 03:17:51;;;;;;;1068.38;937.92;;;6.70;99.90;;;;;;5049071;28;20041;-82
2023/12/15 03:20:17;;;;;;;1037.05;928.50;;;6.70;99.90;;;;;;5068324;28;20111;-82
2023/12/15 03:22:43;;;;;;;1116.35;951.25;;;6.80;99.90;;;;;;5052109;28;20120;-83
2023/12/15 03:25:09;;;;;;;1071.45;939.92;;;6.70;99.90;;;;;;5047887;28;20049;-82
2023/12/15 03:27:34;;;;;;;1212.22;978.20;;;7.60;99.90;;;;;;5060085;28;20032;-82
2023/12/15 03:30:00;;;;;;;1114.22;955.03;;;6.70;99.90;;;;;;5056090;28;20112;-82
2023/12/15 03:32:26;;;;;;;1063.85;949.17;;;7.10;99.90;;;;;;5089468;28;20045;-82
2023/12/15 03:34:51;;;;;;;1072.63;948.58;;;7.90;99.90;;;;;;5055909;28;20039;-83
2023/12/15 03:37:17;;;;;;;1196.07;977.40;;;7.80;99.90;;;;;;5056014;28;20119;-83
2023/12/15 03:39:43;;;;;;;1061.93;941.58;;;6.80;99.90;;;;;;5053233;28;20044;-82
2023/12/15 03:42:11;;;;;;;1462.13;999.90;;;7.60;99.90;;;;;;5078125;28;20102;-82
2023/12/15 03:44:39;;;;;;;1063.70;945.65;;;7.20;99.90;;;;;;5078018;28;20066;-82
2023/12/15 03:47:07;;;;;;;1009.40;906.08;;;6.50;99.90;;;;;;5056212;28;20064;-82
2023/12/15 03:49:36;;;;;;;1061.15;931.60;;;6.50;99.90;;;;;;5064062;28;20063;-82
2023/12/15 03:52:02;;;;;;;1024.35;912.75;;;6.50;99.90;;;;;;5053221;28;20047;-83
2023/12/15 03:54:28;;;;;;;1084.20;946.17;;;6.50;99.90;;;;;;5048586;28;20036;-83
2023/12/15 03:56:57;;;;;;;1026.82;918.53;;;7.40;99.90;;;;;;5066870;28;20090;-82
2023/12/15 03:59:24;;;;;;;1094.97;944.33;;;6.40;99.90;;;;;;5084468;28;20043;-83
2023/12/15 04:01:49;;;;;;;1094.57;949.20;;;7.60;99.90;;;;;;5049341;28;20041;-82
2023/12/15 04:04:15;;;;;;;1061.80;943.38;;;6.70;99.90;;;;;;5071442;28;20063;-82
2023/12/15 04:06:41;;;;;;;1095.80;956.03;;;6.60;99.90;;;;;;5050347;28;20250;-82
2023/12/15 04:09:09;;;;;;;1018.78;910.65;;;6.50;99.90;;;;;;5033684;28;20029;-82
2023/12/15 04:11:38;;;;;;;1061.68;941.50;;;7.00;99.90;;;;;;5055613;28;20040;-82
2023/12/15 04:14:05;;;;;;;1012.03;903.10;;;6.40;99.90;;;;;;5049857;28;20044;-83
2023/12/15 04:16:32;;;;;;;1239.65;983.78;;;6.90;99.90;;;;;;5036622;28;20048;-82
2023/12/15 04:18:58;;;;;;;1051.88;939.70;;;6.40;99.90;;;;;;5051402;28;20094;-83
2023/12/15 04:21:25;;;;;;;1003.42;899.75;;;7.00;99.90;;;;;;5053414;28;20051;-82
2023/12/15 04:23:50;;;;;;;1094.45;956.95;;;6.40;99.90;;;;;;5050159;28;20045;-82
2023/12/15 04:26:17;;;;;;;1061.35;944.95;;;6.40;99.90;;;;;;5066712;28;20445;-83
2023/12/15 04:28:42;;;;;;;1060.93;948.22;;;6.40;99.90;;;;;;5067449;28;20041;-83
2023/12/15 04:31:14;;;;;;;1052.63;930.85;;;6.90;99.90;;;;;;5051000;28;20552;-83
2023/12/15 04:33:40;;;;;;;1062.20;946.33;;;6.40;99.90;;;;;;5047878;28;20029;-83
2023/12/15 04:36:08;;;;;;;1107.45;943.13;;;6.40;99.90;;;;;;5049924;28;20443;-82
2023/12/15 04:38:36;;;;;;;1036.45;926.28;;;6.40;99.90;;;;;;5055331;28;20029;-83
2023/12/15 04:41:02;;;;;;;979.03;883.22;;;6.90;99.90;;;;;;5047941;28;20048;-83
2023/12/15 04:43:28;;;;;;;1201.57;981.15;;;6.40;99.90;;;;;;5071684;28;20123;-83
2023/12/15 04:45:55;;;;;;;1061.25;947.65;;;6.50;99.90;;;;;;5046262;28;20609;-83
2023/12/15 04:48:21;;;;;;;1036.95;927.95;;;6.40;99.90;;;;;;5057421;28;20058;-83
2023/12/15 04:50:47;;;;;;;1043.55;935.97;;;6.40;99.90;;;;;;5060101;28;20108;-83
2023/12/15 04:53:13;;;;;;;1040.18;929.85;;;6.40;99.90;;;;;;5034154;28;20040;-83
2023/12/15 04:55:39;;;;;;;1064.47;948.92;;;7.00;99.90;;;;;;5054409;28;20401;-82
2023/12/15 04:58:05;;;;;;;1074.97;957.13;;;6.40;99.90;;;;;;5071325;28;20048;-82
2023/12/15 05:00:31;;;;;;;1002.05;903.53;;;6.30;99.90;;;;;;5056005;28;20281;-82
2023/12/15 05:03:00;;;;;;;1078.22;957.55;;;7.10;99.90;;;;;;5067636;28;20608;-82
2023/12/15 05:05:25;;;;;;;1047.22;935.08;;;6.30;99.90;;;;;;5065691;28;20083;-82
2023/12/15 05:07:51;;;;;;;1041.38;934.30;;;6.30;99.90;;;;;;5066315;28;20040;-83
2023/12/15 05:10:17;;;;;;;1041.55;933.80;;;6.40;99.90;;;;;;5072587;28;20037;-83
2023/12/15 05:12:42;;;;;;;1049.03;936.05;;;6.50;99.90;;;;;;5052287;28;20028;-83
2023/12/15 05:15:09;;;;;;;1088.05;951.47;;;6.40;99.90;;;;;;5067025;28;20124;-83
2023/12/15 05:17:34;;;;;;;1058.97;942.47;;;6.40;99.90;;;;;;5052747;28;20036;-82
2023/12/15 05:20:02;;;;;;;1068.50;951.33;;;7.00;99.90;;;;;;5067858;28;20072;-83
2023/12/15 05:22:28;;;;;;;1089.60;956.03;;;6.50;99.90;;;;;;5058999;28;20040;-83
2023/12/15 05:24:53;;;;;;;1044.05;937.05;;;7.10;99.90;;;;;;5057575;28;20037;-82
2023/12/15 05:27:19;;;;;;;1140.57;973.80;;;7.20;99.90;;;;;;5055271;28;20045;-83
2023/12/15 05:29:47;;;;;;;1071.03;954.80;;;6.50;99.90;;;;;;5062353;28;20041;-83
2023/12/15 05:32:13;;;;;;;1070.18;955.58;;;7.60;99.90;;;;;;5072465;28;20037;-83
2023/12/15 05:34:39;;;;;;;1077.57;961.42;;;6.50;99.90;;;;;;5071264;28;20099;-83
2023/12/15 05:37:05;;;;;;;1055.50;945.28;;;6.50;99.90;;;;;;5079940;28;20040;-83
2023/12/15 05:39:31;;;;;;;1065.47;950.40;;;6.40;99.90;;;;;;5076281;28;20036;-83
2023/12/15 05:41:56;;;;;;;1040.32;929.17;;;6.30;99.90;;;;;;5074335;28;20044;-83
2023/12/15 05:44:25;;;;;;;1064.70;944.22;;;6.30;99.90;;;;;;5075542;28;20041;-82
2023/12/15 05:46:51;;;;;;;1011.45;909.88;;;6.30;99.90;;;;;;5056880;28;20044;-82
2023/12/15 05:49:16;;;;;;;1058.55;945.67;;;6.90;99.90;;;;;;5079124;28;20045;-81
2023/12/15 05:51:48;;;;;;;1045.05;933.33;;;6.20;99.90;;;;;;5061061;28;20033;-80
2023/12/15 05:54:14;;;;;;;973.05;878.38;;;6.30;99.90;;;;;;5047004;28;20071;-81
2023/12/15 05:56:40;;;;;;;1054.80;943.78;;;6.10;99.90;;;;;;5050342;28;20408;-80
2023/12/15 05:59:05;;;;;;;1045.53;938.00;;;6.00;99.90;;;;;;5053141;28;20123;-80
2023/12/15 06:01:34;;;;;;;1051.80;939.08;;;6.00;99.90;;;;;;5055273;28;20040;-82
2023/12/15 06:03:59;;;;;;;981.28;889.17;;;5.90;99.90;;;;;;5069348;28;20044;-80
2023/12/15 06:06:26;;;;;;;1009.65;906.33;;;6.80;99.90;;;;;;5052100;28;20041;-83
2023/12/15 06:08:52;;;;;;;993.75;894.30;;;5.80;99.90;;;;;;5071435;28;20064;-81
2023/12/15 06:11:18;;;;;;;968.70;875.08;;;5.80;99.90;;;;;;5049452;28;20041;-78
2023/12/15 06:13:43;;;;;;;980.05;889.53;;;6.70;99.90;;;;;;5066138;28;20086;-79
2023/12/15 06:16:17;;;;;;;968.38;876.05;;;5.70;99.90;;;;;;5060910;28;20028;-78
2023/12/15 06:18:43;;;;;;;996.35;893.65;;;5.70;99.90;;;;;;5069067;28;20056;-78
2023/12/15 06:21:08;;;;;;;948.20;858.58;;;5.70;99.90;;;;;;5060729;28;20443;-78
2023/12/15 06:23:34;;;;;;;956.75;867.50;;;5.70;99.90;;;;;;5064186;28;20041;-78
2023/12/15 06:26:00;;;;;;;944.80;855.92;;;6.50;99.90;;;;;;5063436;28;20033;-78
2023/12/15 06:28:25;;;;;;;1000.00;893.42;;;5.70;99.90;;;;;;5059774;28;20171;-78
2023/12/15 06:30:51;;;;;;;968.55;875.35;;;5.70;99.90;;;;;;5061872;28;20032;-78
2023/12/15 06:33:19;;;;;;;989.72;885.47;;;5.80;99.90;;;;;;5051633;28;20037;-77
2023/12/15 06:35:45;;;;;;;979.85;883.50;;;7.10;99.90;;;;;;5060372;28;20398;-78
2023/12/15 06:38:11;;;;;;;949.17;857.53;;;5.80;99.90;;;;;;5065052;28;20040;-78
2023/12/15 06:40:37;;;;;;;1010.30;909.20;;;5.80;99.90;;;;;;5064611;28;20095;-80
2023/12/15 06:43:02;;;;;;;975.17;876.70;;;5.80;99.90;;;;;;5069647;28;20310;-80
2023/12/15 06:45:28;;;;;;;980.15;885.80;;;6.20;99.90;;;;;;5063682;28;20096;-81
2023/12/15 06:47:53;;;;;;;964.92;871.35;;;7.00;99.90;;;;;;5051411;28;20040;-80
2023/12/15 06:50:19;;;;;;;972.97;877.90;;;5.80;99.90;;;;;;5073217;28;20121;-80
2023/12/15 06:52:45;;;;;;;965.47;871.55;;;7.00;99.90;;;;;;5060953;28;20044;-80
2023/12/15 06:55:10;;;;;;;992.03;890.45;;;6.10;99.90;;;;;;5064147;28;20444;-80
2023/12/15 06:57:36;;;;;;;990.13;888.53;;;5.70;99.90;;;;;;5048846;28;20037;-80
2023/12/15 07:00:02;;;;;;;951.88;858.35;;;6.90;99.90;;;;;;5065929;28;20047;-80
2023/12/15 07:02:28;;;;;;;976.90;877.13;;;5.60;99.90;;;;;;5049483;28;20063;-80
2023/12/15 07:04:53;;;;;;;980.33;881.47;;;6.80;99.90;;;;;;5050747;28;20040;-80
2023/12/15 07:07:19;;;;;;;951.75;857.72;;;5.60;99.90;;;;;;5051740;28;20203;-79
2023/12/15 07:09:44;;;;;;;946.67;853.38;;;5.50;99.90;;;;;;5053277;28;20122;-80
2023/12/15 07:12:10;;;;;;;908.85;826.88;;;6.50;99.90;;;;;;5068094;28;20037;-78
2023/12/15 07:14:36;;;;;;;926.10;842.08;;;6.60;99.90;;;;;;5067428;28;20041;-81
2023/12/15 07:17:01;;;;;;;944.22;854.33;;;5.50;99.90;;;;;;5053579;28;20052;-81
2023/12/15 07:19:27;;;;;;;960.28;867.45;;;5.50;99.90;;;;;;4995225;28;1300774;-78
2023/12/15 07:21:53;;;;;;;920.85;833.67;;;5.50;99.90;;;;;;5069783;28;20044;-80
2023/12/15 07:24:18;;;;;;;912.25;828.58;;;5.50;99.90;;;;;;5069978;28;20045;-81
2023/12/15 07:26:44;;;;;;;955.25;862.00;;;5.60;99.90;;;;;;5050978;28;20041;-80
2023/12/15 07:29:10;;;;;;;937.35;847.95;;;5.60;99.90;;;;;;5053347;28;20037;-81
2023/12/15 07:31:36;;;;;;;931.58;845.28;;;5.60;99.90;;;;;;5052154;28;20576;-80
2023/12/15 07:34:01;;;;;;;938.17;847.83;;;5.50;99.90;;;;;;5068970;28;20055;-80
2023/12/15 07:36:27;;;;;;;901.50;821.22;;;6.10;99.90;;;;;;5064715;28;20045;-80
2023/12/15 07:38:52;;;;;;;942.40;847.78;;;5.50;99.90;;;;;;5083967;28;20047;-81
2023/12/15 07:41:18;;;;;;;919.45;831.47;;;5.40;99.90;;;;;;5072286;28;20568;-80
2023/12/15 07:43:44;;;;;;;954.50;860.38;;;6.50;99.90;;;;;;5065355;28;20045;-80
2023/12/15 07:46:18;;;;;;;897.33;817.72;;;5.40;99.90;;;;;;5068489;28;20040;-80
2023/12/15 07:48:43;;;;;;;;;;;5.10;99.90;;;;;;5055603;28;20029;-80
2023/12/15 07:51:17;;;;;;;906.22;824.58;;;5.30;99.90;;;;;;5093217;28;19924;-81
2023/12/15 07:53:42;;;;;;;878.35;803.05;;;6.10;99.90;;;;;;5067030;28;20048;-80
2023/12/15 07:56:08;;;;;;;872.97;795.50;;;5.30;99.90;;;;;;5064319;28;20041;-80
2023/12/15 07:58:34;;;;;;;916.30;829.05;;;5.30;99.90;;;;;;5066887;28;20028;-80
2023/12/15 08:01:00;;;;;;;897.15;816.28;;;5.30;99.90;;;;;;5050943;28;20040;-81
2023/12/15 08:03:25;;;;;;;890.00;810.40;;;5.30;99.90;;;;;;5058999;28;20044;-80
2023/12/15 08:05:51;;;;;;;899.35;817.20;;;5.30;99.90;;;;;;5071597;28;20515;-80
2023/12/15 08:08:16;;;;;;;854.42;779.30;;;5.30;99.90;;;;;;5055046;28;20064;-81
2023/12/15 08:10:42;;;;;;;956.30;858.15;;;5.40;99.90;;;;;;5068747;28;20426;-80
2023/12/15 08:13:12;;;;;;;889.25;806.47;;;5.40;99.90;;;;;;5071277;28;20040;-80
2023/12/15 08:15:38;;;;;;;899.42;816.53;;;5.60;99.90;;;;;;5059284;28;20071;-80
2023/12/15 08:18:04;;;;;;;914.50;825.13;;;5.70;99.90;;;;;;5071323;28;20036;-80
2023/12/15 08:20:30;;;;;;;927.42;833.60;;;5.60;99.90;;;;;;5051261;28;20049;-81
2023/12/15 08:22:55;;;;;;;971.90;872.83;;;6.00;99.90;;;;;;5069143;28;20032;-81
2023/12/15 08:25:21;;;;;;;958.67;866.40;;;6.30;99.90;;;;;;5063130;28;20098;-82
2023/12/15 08:27:47;;;;;;;992.65;894.28;;;5.70;99.90;;;;;;5057472;28;20035;-81
2023/12/15 08:30:12;;;;;;;948.17;854.75;;;5.80;99.90;;;;;;5067997;28;20040;-84
2023/12/15 08:32:38;;;;;;;982.15;885.85;;;5.80;99.90;;;;;;5057029;28;20050;-82
2023/12/15 08:35:04;;;;;;;1087.88;940.38;;;6.00;99.90;;;;;;5072374;28;20048;-81
2023/12/15 08:37:30;;;;;;;957.92;865.38;;;5.90;99.90;;;;;;5069912;28;20040;-83
2023/12/15 08:39:55;;;;;;;1006.90;906.97;;;6.00;99.90;;;;;;5067125;28;20167;-82
2023/12/15 08:42:21;;;;;;;1012.60;912.55;;;6.00;99.90;;;;;;5060490;28;20037;-83
2023/12/15 08:44:47;;;;;;;1013.92;911.10;;;6.30;99.90;;;;;;5073831;28;20044;-81
2023/12/15 08:47:17;;;;;;;1047.90;939.17;;;6.10;99.90;;;;;;5080357;28;20503;-83
2023/12/15 08:49:42;;;;;;;1055.30;941.58;;;6.20;99.90;;;;;;5055405;28;20040;-82
2023/12/15 08:52:08;;;;;;;1036.07;930.13;;;6.20;99.90;;;;;;5076165;28;20064;-81
2023/12/15 08:54:34;;;;;;;1098.20;968.78;;;6.30;99.90;;;;;;5068050;28;20089;-82
2023/12/15 08:56:59;;;;;;;1090.90;961.80;;;6.70;99.90;;;;;;5074079;28;20070;-81
2023/12/15 08:59:25;;;;;;;1040.35;930.90;;;6.30;99.90;;;;;;5072394;28;20040;-81
2023/12/15 09:01:50;;;;;;;1102.35;976.08;;;6.40;99.90;;;;;;5072169;28;20037;-79
2023/12/15 09:04:16;;;;;;;1046.50;941.22;;;6.40;99.90;;;;;;5043951;28;20482;-81
2023/12/15 09:06:42;;;;;;;1065.80;956.30;;;6.40;99.90;;;;;;5068520;28;20040;-83
2023/12/15 09:09:09;;;;;;;1071.43;958.50;;;6.40;99.90;;;;;;5075856;28;20137;-84
2023/12/15 09:11:36;;;;;;;1070.55;962.05;;;7.30;99.90;;;;;;5055224;28;20398;-82
2023/12/15 09:14:03;;;;;;;1047.93;940.28;;;6.50;99.90;;;;;;5073823;28;20075;-82
2023/12/15 09:16:29;;;;;;;1057.53;948.05;;;6.50;99.90;;;;;;5078631;28;20502;-82
2023/12/15 09:18:54;;;;;;;1244.25;990.08;;;6.50;99.90;;;;;;5053871;28;20045;-83
2023/12/15 09:21:20;;;;;;;1072.88;959.28;;;6.50;99.90;;;;;;5054303;28;20049;-83
2023/12/15 09:23:47;;;;;;;1046.85;935.88;;;6.60;99.90;;;;;;5090106;28;20100;-83
2023/12/15 09:26:13;;;;;;;1029.78;925.97;;;6.10;99.90;;;;;;5067709;28;20036;-84
2023/12/15 09:28:39;;;;;;;1104.50;963.70;;;6.60;99.90;;;;;;5057683;28;20610;-83
2023/12/15 09:31:04;;;;;;;1130.88;975.45;;;6.60;99.90;;;;;;5072415;28;20066;-82
2023/12/15 09:33:30;;;;;;;1048.60;939.60;;;6.60;99.90;;;;;;5049485;28;20033;-83
2023/12/15 09:35:56;;;;;;;1088.07;964.25;;;7.40;99.90;;;;;;5075978;28;20082;-82
2023/12/15 09:38:22;;;;;;;1087.32;967.10;;;6.70;99.90;;;;;;5080590;28;20036;-82
2023/12/15 09:40:48;;;;;;;1045.53;940.33;;;6.70;99.90;;;;;;5060400;28;20081;-82
2023/12/15 09:43:15;;;;;;;1272.57;992.63;;;6.70;99.90;;;;;;5052738;28;20041;-83
2023/12/15 09:45:40;;;;;;;1117.85;965.20;;;7.40;99.90;;;;;;5074059;28;20041;-82
2023/12/15 09:48:07;;;;;;;1079.63;966.97;;;6.80;99.90;;;;;;5058886;28;20519;-82
2023/12/15 09:50:33;;;;;;;1047.75;938.58;;;6.80;99.90;;;;;;5063562;28;20035;-82
2023/12/15 09:53:02;;;;;;;1090.97;967.97;;;6.70;99.90;;;;;;5072838;28;20066;-82
2023/12/15 09:55:30;;;;;;;1183.20;977.08;;;8.20;99.90;;;;;;5070138;28;20048;-83
2023/12/15 09:57:57;;;;;;;1029.60;925.65;;;7.60;99.90;;;;;;5060208;28;20096;-83
2023/12/15 10:00:23;;;;;;;1063.32;950.35;;;7.00;99.90;;;;;;5053013;28;20041;-83
2023/12/15 10:02:49;;;;;;;1148.85;970.97;;;7.40;99.90;;;;;;5056637;28;20074;-83
2023/12/15 10:05:15;;;;;;;1053.22;941.85;;;7.10;99.90;;;;;;5040680;28;20052;-81
2023/12/15 10:07:41;;;;;;;1048.38;936.72;;;7.10;99.90;;;;;;5056670;28;20150;-80
2023/12/15 10:10:06;;;;;;;1049.72;935.83;;;7.10;99.90;;;;;;5051785;28;20072;-81
2023/12/15 10:12:32;;;;;;;1037.68;930.05;;;7.10;99.90;;;;;;5076026;28;20489;-82
2023/12/15 10:14:58;;;;;;;1076.90;947.65;;;7.20;99.90;;;;;;5070077;28;20072;-81
2023/12/15 10:17:23;;;;;;;1178.82;970.92;;;7.30;99.90;;;;;;5053809;28;22344;-81
2023/12/15 10:19:50;;;;;;;1036.82;925.08;;;7.80;99.90;;;;;;5069953;28;20124;-81
2023/12/15 10:22:16;;;;;;;1039.88;930.30;;;7.50;99.90;;;;;;5054020;28;20512;-80
2023/12/15 10:24:41;;;;;;;1031.43;921.53;;;8.30;99.90;;;;;;5064317;28;20037;-81
2023/12/15 10:27:08;;;;;;;1025.68;915.83;;;7.50;99.90;;;;;;5067325;28;20043;-81
2023/12/15 10:29:38;;;;;;;1041.18;928.13;;;8.50;99.90;;;;;;5065931;28;20115;-81
2023/12/15 10:32:05;;;;;;;1019.15;911.70;;;8.60;99.90;;;;;;5047324;28;20044;-81
2023/12/15 10:34:31;;;;;;;1044.43;932.38;;;7.60;99.90;;;;;;5052732;28;20528;-79
2023/12/15 10:36:57;;;;;;;1029.03;915.97;;;7.70;99.90;;;;;;5057495;28;20042;-83
2023/12/15 10:39:24;;;;;;;1033.13;918.10;;;8.80;99.90;;;;;;5066752;28;20028;-83
2023/12/15 10:41:51;;;;;;;1062.80;922.10;;;9.00;99.90;;;;;;5056627;28;20054;-83
2023/12/15 10:44:20;;;;;;;1001.55;895.38;;;8.90;99.90;;;;;;5075136;28;20120;-83
2023/12/15 10:46:47;;;;;;;1023.83;906.33;;;8.50;99.90;;;;;;5057640;28;20158;-82
2023/12/15 10:49:13;;;;;;;975.50;874.90;;;8.30;99.90;;;;;;5056459;28;20043;-81
2023/12/15 10:51:43;;;;;;;1080.90;923.58;;;8.90;99.90;;;;;;5058411;28;20037;-82
2023/12/15 10:54:09;;;;;;;978.95;878.25;;;7.90;99.90;;;;;;5052086;28;20070;-81
2023/12/15 10:56:40;;;;;;;1088.78;919.13;;;7.00;99.90;;;;;;5068701;28;20115;-82
2023/12/15 10:59:07;;;;;;;1104.38;922.88;;;8.80;99.90;;;;;;5054381;28;20096;-82
2023/12/15 11:01:35;;;;;;;989.50;884.78;;;8.50;99.90;;;;;;5060750;28;20124;-82
2023/12/15 11:04:01;;;;;;;997.97;892.85;;;8.90;99.90;;;;;;5079750;28;20046;-83
2023/12/15 11:06:31;;;;;;;1081.68;910.22;;;8.00;99.90;;;;;;5075268;28;20032;-83
2023/12/15 11:09:02;;;;;;;978.78;879.38;;;8.00;99.90;;;;;;5062788;28;20036;-82
2023/12/15 11:11:29;;;;;;;972.67;871.42;;;8.00;99.90;;;;;;5077506;28;20052;-83
2023/12/15 11:14:04;;;;;;;982.13;879.17;;;8.10;99.90;;;;;;5078400;28;20404;-82
2023/12/15 11:16:31;;;;;;;1245.72;965.38;;;8.60;99.90;;;;;;5066540;28;20036;-83
2023/12/15 11:18:59;;;;;;;1003.63;891.20;;;8.50;99.90;;;;;;5069623;28;20037;-83
2023/12/15 11:21:26;;;;;;;979.08;879.40;;;8.20;99.90;;;;;;5080302;28;20059;-83
2023/12/15 11:24:04;;;;;;;987.38;884.28;;;8.10;99.90;;;;;;5056096;28;20033;-83
2023/12/15 11:26:37;;;;;;;1027.63;909.88;;;8.60;99.90;;;;;;5053872;28;20045;-82
2023/12/15 11:29:12;;;;;;;1006.42;896.33;;;8.20;99.90;;;;;;5058908;28;20043;-82
2023/12/15 11:31:40;;;;;;;998.85;893.35;;;8.20;99.90;;;;;;5058076;28;20118;-82
2023/12/15 11:34:09;;;;;;;1029.45;904.40;;;8.20;99.90;;;;;;5081425;28;20044;-83
2023/12/15 11:36:42;;;;;;;989.35;887.13;;;8.20;99.90;;;;;;5055605;28;20058;-82
2023/12/15 11:39:12;;;;;;;927.65;833.53;;;8.20;99.90;;;;;;5057975;28;20045;-82
2023/12/15 11:41:41;;;;;;;1028.25;897.53;;;8.30;99.90;;;;;;5075266;28;20039;-82
2023/12/15 11:44:07;;;;;;;985.70;880.38;;;8.20;99.90;;;;;;5061309;28;20429;-83
2023/12/15 11:46:35;;;;;;;1012.05;892.20;;;8.20;99.90;;;;;;5064275;28;20037;-83
2023/12/15 11:49:01;;;;;;;1104.47;922.38;;;8.20;99.90;;;;;;5048367;28;20661;-82
2023/12/15 11:51:29;;;;;;;1121.05;928.65;;;8.30;99.90;;;;;;5049470;28;20424;-82
2023/12/15 11:53:58;;;;;;;989.83;878.65;;;8.20;99.90;;;;;;5067272;28;20506;-83
2023/12/15 11:56:24;;;;;;;992.55;888.97;;;8.20;99.90;;;;;;5053838;28;20063;-82
2023/12/15 11:58:50;;;;;;;997.88;885.45;;;8.30;99.90;;;;;;5079241;28;20040;-82
2023/12/15 12:01:17;;;;;;;975.88;872.00;;;8.40;99.90;;;;;;5097217;28;20041;-83
2023/12/15 12:03:43;;;;;;;968.03;870.72;;;8.80;99.90;;;;;;5063441;28;20028;-83
2023/12/15 12:06:09;;;;;;;1010.13;893.63;;;8.30;99.90;;;;;;5054066;28;20045;-83